Time;durP1;ratioP1;P1;durP2;ratioP2;P2;SDS_P1;SDS_P2;PMS_P1;PMS_P2;Temp;Humidity;BMP_temperature;BMP_pressure;BME280_temperature;BME280_humidity;BME280_pressure;Samples;Min_cycle;Max_cycle;Signal;HPM_P1;HPM_P2
2023/05/27 00:01:32;;;;;;;;;;;;;;;9.96;69.03;102879.91;5045978;28;1266;-73
2023/05/27 00:03:57;;;;;;;;;;;;;;;9.90;68.58;102882.78;5056223;28;2373;-73
2023/05/27 00:06:22;;;;;;;;;;;;;;;9.89;68.54;102878.50;5047446;28;1914;-73
2023/05/27 00:08:47;;;;;;;;;;;;;;;9.89;69.76;102880.25;5060620;28;1225;-73
2023/05/27 00:11:13;;;;;;;;;;;;;;;9.88;68.74;102882.00;5067160;28;1287;-73
2023/05/27 00:13:38;;;;;;;;;;;;;;;9.84;69.90;102870.09;5063117;28;1197;-73
2023/05/27 00:16:03;;;;;;;;;;;;;;;9.78;69.43;102880.75;5049494;28;1573;-74
2023/05/27 00:18:28;;;;;;;;;;;;;;;9.72;69.95;102870.66;5067316;28;1284;-73
2023/05/27 00:20:54;;;;;;;;;;;;;;;9.69;69.58;102870.78;5067168;28;1276;-74
2023/05/27 00:23:19;;;;;;;;;;;;;;;9.66;69.32;102876.13;5047286;28;1284;-74
2023/05/27 00:25:47;;;;;;;;;;;;;;;9.65;69.55;102870.09;5060019;28;1359;-73
2023/05/27 00:28:12;;;;;;;;;;;;;;;9.65;70.15;102874.44;5062581;28;1886;-72
2023/05/27 00:30:37;;;;;;;;;;;;;;;9.63;69.71;102871.91;5039852;28;1127;-73
2023/05/27 00:33:02;;;;;;;;;;;;;;;9.63;69.05;102856.34;5070504;28;1089;-73
2023/05/27 00:35:28;;;;;;;;;;;;;;;9.61;69.40;102862.53;5040321;28;1317;-73
2023/05/27 00:37:53;;;;;;;;;;;;;;;9.58;69.79;102859.19;5058513;28;1180;-73
2023/05/27 00:40:20;;;;;;;;;;;;;;;9.57;70.26;102865.25;5055271;28;1052;-73
2023/05/27 00:42:46;;;;;;;;;;;;;;;9.56;69.99;102855.78;5061684;28;1150;-73
2023/05/27 00:45:11;;;;;;;;;;;;;;;9.54;70.46;102851.59;5042338;28;1408;-73
2023/05/27 00:47:37;;;;;;;;;;;;;;;9.48;69.58;102857.91;5057679;28;1893;-73
2023/05/27 00:50:03;;;;;;;;;;;;;;;9.47;69.84;102845.84;5045070;28;1282;-74
2023/05/27 00:52:28;;;;;;;;;;;;;;;9.47;69.92;102851.03;5048380;28;1142;-73
2023/05/27 00:54:56;;;;;;;;;;;;;;;9.46;70.12;102859.72;5058727;28;1202;-73
2023/05/27 00:57:21;;;;;;;;;;;;;;;9.46;70.84;102859.72;5067310;28;1096;-73
2023/05/27 00:59:47;;;;;;;;;;;;;;;9.40;70.56;102849.59;5059674;28;1223;-73
2023/05/27 01:02:12;;;;;;;;;;;;;;;9.41;70.41;102856.50;5060365;28;1292;-73
2023/05/27 01:04:37;;;;;;;;;;;;;;;9.38;70.96;102856.63;5065137;28;1290;-73
2023/05/27 01:07:02;;;;;;;;;;;;;;;9.39;71.06;102855.69;5059159;28;1897;-73
2023/05/27 01:09:44;;;;;;;;;;;;;;;9.36;71.16;102848.09;5064914;28;1201;-73
2023/05/27 01:12:13;;;;;;;;;;;;;;;9.34;71.63;102849.88;5041386;28;1479;-73
2023/05/27 01:14:39;;;;;;;;;;;;;;;9.33;71.46;102850.78;5059675;28;1349;-73
2023/05/27 01:17:06;;;;;;;;;;;;;;;9.31;70.82;102847.44;5072846;28;1092;-74
2023/05/27 01:19:35;;;;;;;;;;;;;;;9.31;71.55;102847.44;5061764;28;1189;-73
2023/05/27 01:22:01;;;;;;;;;;;;;;;9.31;70.80;102844.84;5058700;28;1208;-73
2023/05/27 01:24:26;;;;;;;;;;;;;;;9.27;71.79;102838.94;5062894;28;1256;-73
2023/05/27 01:26:52;;;;;;;;;;;;;;;9.23;71.23;102836.56;5046350;28;1903;-73
2023/05/27 01:29:17;;;;;;;;;;;;;;;9.18;71.58;102839.38;5046845;28;1203;-73
2023/05/27 01:31:46;;;;;;;;;;;;;;;9.14;71.75;102831.81;5062600;28;1092;-73
2023/05/27 01:34:14;;;;;;;;;;;;;;;9.12;71.86;102842.22;5061068;28;1216;-74
2023/05/27 01:36:48;;;;;;;;;;;;;;;9.11;72.43;102842.28;5066701;28;1241;-73
2023/05/27 01:39:15;;;;;;;;;;;;;;;9.07;73.57;102836.41;5047711;28;1306;-73
2023/05/27 01:41:41;;;;;;;;;;;;;;;9.08;72.52;102837.25;5060297;28;1430;-74
2023/05/27 01:44:07;;;;;;;;;;;;;;;9.09;72.22;102836.34;5039679;28;1601;-73
2023/05/27 01:46:32;;;;;;;;;;;;;;;9.04;72.52;102837.38;5050011;28;1902;-73
2023/05/27 01:48:58;;;;;;;;;;;;;;;9.05;72.67;102828.69;5063352;28;1514;-74
2023/05/27 01:51:23;;;;;;;;;;;;;;;9.02;72.46;102831.44;5070659;28;1138;-73
2023/05/27 01:53:48;;;;;;;;;;;;;;;8.98;73.11;102835.03;5056959;28;1380;-73
2023/05/27 01:56:13;;;;;;;;;;;;;;;8.98;73.25;102842.81;5061906;28;1401;-73
2023/05/27 01:58:39;;;;;;;;;;;;;;;8.94;73.27;102835.22;5067105;28;1577;-73
2023/05/27 02:01:04;;;;;;;;;;;;;;;8.95;73.38;102848.13;5044364;28;1429;-73
2023/05/27 02:03:29;;;;;;;;;;;;;;;8.92;73.55;102837.88;5055952;28;1462;-73
2023/05/27 02:05:54;;;;;;;;;;;;;;;8.93;74.16;102847.34;5060096;28;1299;-73
2023/05/27 02:08:20;;;;;;;;;;;;;;;8.92;74.05;102835.31;5056122;28;1902;-73
2023/05/27 02:10:45;;;;;;;;;;;;;;;8.91;74.90;102846.56;5042127;28;1397;-73
2023/05/27 02:13:10;;;;;;;;;;;;;;;8.88;74.26;102846.69;5061061;28;1399;-73
2023/05/27 02:15:35;;;;;;;;;;;;;;;8.85;74.12;102836.47;5040758;28;1353;-73
2023/05/27 02:18:01;;;;;;;;;;;;;;;8.85;74.52;102831.31;5042922;28;1263;-74
2023/05/27 02:20:26;;;;;;;;;;;;;;;8.85;73.89;102831.31;5056183;28;1435;-73
2023/05/27 02:22:51;;;;;;;;;;;;;;;8.87;74.67;102833.81;5063428;28;1133;-73
2023/05/27 02:25:16;;;;;;;;;;;;;;;8.88;74.08;102825.97;5061202;28;1515;-73
2023/05/27 02:27:43;;;;;;;;;;;;;;;8.87;74.17;102834.66;5064867;28;2016;-73
2023/05/27 02:30:09;;;;;;;;;;;;;;;8.83;74.61;102842.59;5070824;28;1130;-73
2023/05/27 02:32:34;;;;;;;;;;;;;;;8.81;75.17;102837.50;5064867;28;1191;-73
2023/05/27 02:35:00;;;;;;;;;;;;;;;8.79;74.91;102839.31;5060802;28;1108;-75
2023/05/27 02:37:25;;;;;;;;;;;;;;;8.78;74.25;102841.06;5068536;28;1058;-75
2023/05/27 02:39:53;;;;;;;;;;;;;;;8.75;75.63;102845.53;5070718;28;1095;-73
2023/05/27 02:42:18;;;;;;;;;;;;;;;8.71;75.38;102846.53;5047024;28;1318;-73
2023/05/27 02:44:43;;;;;;;;;;;;;;;8.71;74.95;102849.13;5062951;28;1123;-74
2023/05/27 02:47:08;;;;;;;;;;;;;;;8.71;75.11;102849.13;5066343;28;1898;-74
2023/05/27 02:49:34;;;;;;;;;;;;;;;8.67;75.14;102847.59;5062179;28;1080;-73
2023/05/27 02:51:59;;;;;;;;;;;;;;;8.65;75.19;102844.22;5068689;28;1110;-74
2023/05/27 02:54:24;;;;;;;;;;;;;;;8.65;75.66;102844.22;5070614;28;1064;-73
2023/05/27 02:56:50;;;;;;;;;;;;;;;8.64;75.24;102847.72;5043655;28;1498;-73
2023/05/27 02:59:15;;;;;;;;;;;;;;;8.60;76.11;102848.72;5066073;28;1188;-73
2023/05/27 03:01:40;;;;;;;;;;;;;;;8.56;76.78;102850.63;5060119;28;1539;-73
2023/05/27 03:04:06;;;;;;;;;;;;;;;8.52;75.72;102852.47;5064311;28;1280;-73
2023/05/27 03:06:31;;;;;;;;;;;;;;;8.50;76.16;102850.88;5065680;28;1980;-73
2023/05/27 03:08:57;;;;;;;;;;;;;;;8.48;77.20;102843.16;5047197;28;1450;-73
2023/05/27 03:11:22;;;;;;;;;;;;;;;8.43;76.04;102845.09;5049824;28;1398;-73
2023/05/27 03:13:47;;;;;;;;;;;;;;;8.43;76.15;102839.06;5063648;28;1207;-73
2023/05/27 03:16:12;;;;;;;;;;;;;;;8.42;76.35;102843.41;5052198;28;1295;-73
2023/05/27 03:18:38;;;;;;;;;;;;;;;8.42;76.29;102837.38;5067427;28;1635;-73
2023/05/27 03:21:03;;;;;;;;;;;;;;;8.38;75.69;102841.03;5064637;28;1658;-73
2023/05/27 03:23:28;;;;;;;;;;;;;;;8.34;76.22;102840.25;5062258;28;1547;-73
2023/05/27 03:25:54;;;;;;;;;;;;;;;8.32;76.63;102836.91;5060601;28;1660;-73
2023/05/27 03:28:19;;;;;;;;;;;;;;;8.28;76.77;102835.34;5062099;28;1893;-73
2023/05/27 03:30:44;;;;;;;;;;;;;;;8.26;76.40;102837.16;5061750;28;1554;-74
2023/05/27 03:33:10;;;;;;;;;;;;;;;8.24;76.48;102833.75;5067790;28;1184;-73
2023/05/27 03:35:35;;;;;;;;;;;;;;;8.22;76.98;102830.41;5069801;28;1196;-73
2023/05/27 03:38:00;;;;;;;;;;;;;;;8.21;76.99;102839.06;5060954;28;1160;-74
2023/05/27 03:40:26;;;;;;;;;;;;;;;8.18;77.14;102834.00;5052014;28;1264;-73
2023/05/27 03:42:51;;;;;;;;;;;;;;;8.17;77.28;102837.50;5036794;28;1184;-74
2023/05/27 03:45:16;;;;;;;;;;;;;;;8.16;77.23;102833.25;5047869;28;1335;-73
2023/05/27 03:47:41;;;;;;;;;;;;;;;8.17;76.99;102827.16;5037562;28;1956;-74
2023/05/27 03:50:07;;;;;;;;;;;;;;;8.18;76.82;102823.66;5065236;28;1477;-73
2023/05/27 03:52:32;;;;;;;;;;;;;;;8.16;77.05;102821.16;5065378;28;1271;-73
2023/05/27 03:54:58;;;;;;;;;;;;;;;8.13;77.55;102818.66;5059867;28;1556;-73
2023/05/27 03:57:23;;;;;;;;;;;;;;;8.13;77.50;102815.25;5041009;28;1667;-74
2023/05/27 03:59:48;;;;;;;;;;;;;;;8.10;77.17;102813.66;5060822;28;1474;-74
2023/05/27 04:02:13;;;;;;;;;;;;;;;8.06;77.62;102813.81;5039033;28;1571;-73
2023/05/27 04:04:38;;;;;;;;;;;;;;;8.05;77.98;102812.13;5047481;28;1319;-73
2023/05/27 04:07:04;;;;;;;;;;;;;;;8.03;77.33;102804.47;5037739;28;1898;-73
2023/05/27 04:09:29;;;;;;;;;;;;;;;8.05;77.60;102802.63;5060639;28;1265;-74
2023/05/27 04:11:54;;;;;;;;;;;;;;;8.09;77.70;102800.78;5043705;28;1529;-72
2023/05/27 04:14:19;;;;;;;;;;;;;;;8.11;77.38;102801.56;5059730;28;1129;-73
2023/05/27 04:16:45;;;;;;;;;;;;;;;8.09;77.86;102803.38;5054365;28;1208;-73
2023/05/27 04:19:10;;;;;;;;;;;;;;;8.07;78.28;102810.31;5043347;28;1249;-73
2023/05/27 04:21:36;;;;;;;;;;;;;;;8.06;78.25;102809.50;5042660;28;1221;-73
2023/05/27 04:24:02;;;;;;;;;;;;;;;8.05;78.76;102801.81;5060542;28;1481;-72
2023/05/27 04:26:27;;;;;;;;;;;;;;;8.02;78.47;102800.16;5047256;28;1960;-73
2023/05/27 04:28:52;;;;;;;;;;;;;;;8.06;78.08;102806.06;5064231;28;1096;-73
2023/05/27 04:31:18;;;;;;;;;;;;;;;8.08;78.57;102810.25;5063819;28;1328;-73
2023/05/27 04:33:44;;;;;;;;;;;;;;;8.11;78.72;102801.56;5063119;28;993;-73
2023/05/27 04:36:09;;;;;;;;;;;;;;;8.09;78.61;102799.03;5064792;28;1371;-72
2023/05/27 04:38:34;;;;;;;;;;;;;;;8.10;79.43;102795.56;5049445;28;1333;-73
2023/05/27 04:41:00;;;;;;;;;;;;;;;8.08;78.20;102801.66;5057491;28;1207;-73
2023/05/27 04:43:26;;;;;;;;;;;;;;;8.08;79.30;102796.50;5057455;28;1670;-74
2023/05/27 04:45:52;;;;;;;;;;;;;;;8.08;78.89;102793.91;5049340;28;1279;-73
2023/05/27 04:48:18;;;;;;;;;;;;;;;8.07;79.83;102792.22;5067766;28;1969;-73
2023/05/27 04:50:43;;;;;;;;;;;;;;;8.08;80.10;102791.31;5053594;28;1268;-73
2023/05/27 04:53:08;;;;;;;;;;;;;;;8.11;79.14;102793.81;5062894;28;1467;-73
2023/05/27 04:55:33;;;;;;;;;;;;;;;8.14;80.39;102797.13;5055900;28;1490;-73
2023/05/27 04:57:59;;;;;;;;;;;;;;;8.16;79.49;102789.31;5064021;28;1319;-73
2023/05/27 05:00:36;;;;;;;;;;;;;;;8.19;79.71;102782.25;5040314;28;1551;-73
2023/05/27 05:03:05;;;;;;;;;;;;;;;8.23;79.97;102785.56;5063291;28;1212;-73
2023/05/27 05:05:31;;;;;;;;;;;;;;;8.26;79.78;102780.28;5067250;28;1247;-73
2023/05/27 05:07:56;;;;;;;;;;;;;;;8.29;79.22;102790.47;5065178;28;1953;-74
2023/05/27 05:10:21;;;;;;;;;;;;;;;8.31;79.79;102793.84;5067552;28;1406;-73
2023/05/27 05:12:47;;;;;;;;;;;;;;;8.33;79.33;102794.63;5058063;28;1573;-73
2023/05/27 05:15:12;;;;;;;;;;;;;;;8.38;79.74;102799.66;5049341;28;1229;-73
2023/05/27 05:17:37;;;;;;;;;;;;;;;8.42;79.82;102796.84;5062566;28;1239;-73
2023/05/27 05:20:03;;;;;;;;;;;;;;;8.47;80.07;102794.91;5057813;28;1343;-73
2023/05/27 05:22:28;;;;;;;;;;;;;;;8.49;81.13;102798.31;5061885;28;1039;-75
2023/05/27 05:24:54;;;;;;;;;;;;;;;8.51;80.39;102786.16;5057494;28;1096;-73
2023/05/27 05:27:19;;;;;;;;;;;;;;;8.57;80.32;102773.88;5062534;28;1977;-74
2023/05/27 05:29:44;;;;;;;;;;;;;;;8.61;80.89;102780.59;5062890;28;2266;-74
2023/05/27 05:32:13;;;;;;;;;;;;;;;8.64;80.38;102775.28;5059669;28;1192;-74
2023/05/27 05:34:38;;;;;;;;;;;;;;;8.69;81.33;102778.53;5063928;28;1339;-74
2023/05/27 05:37:04;;;;;;;;;;;;;;;8.74;81.36;102776.59;5067135;28;1657;-74
2023/05/27 05:39:29;;;;;;;;;;;;;;;8.78;80.92;102775.56;5057312;28;1155;-73
2023/05/27 05:41:55;;;;;;;;;;;;;;;8.84;81.46;102780.47;5040941;28;1291;-74
2023/05/27 05:44:22;;;;;;;;;;;;;;;8.92;79.59;102770.59;5057306;28;1526;-74
2023/05/27 05:46:47;;;;;;;;;;;;;;;8.94;81.11;102762.78;5037388;28;1890;-74
2023/05/27 05:49:13;;;;;;;;;;;;;;;8.93;80.95;102772.28;5043543;28;1276;-75
2023/05/27 05:51:38;;;;;;;;;;;;;;;8.97;81.78;102763.47;5064595;28;1311;-74
2023/05/27 05:54:03;;;;;;;;;;;;;;;9.03;80.57;102762.38;5056861;28;1233;-74
2023/05/27 05:56:28;;;;;;;;;;;;;;;9.08;81.82;102764.78;5040955;28;2049;-73
2023/05/27 05:58:53;;;;;;;;;;;;;;;9.17;81.77;102769.53;5043586;28;1199;-74
2023/05/27 06:01:19;;;;;;;;;;;;;;;9.24;80.83;102765.78;5040563;28;1578;-77
2023/05/27 06:03:45;;;;;;;;;;;;;;;9.32;81.02;102763.66;5056205;28;1533;-74
2023/05/27 06:06:10;;;;;;;;;;;;;;;9.42;80.83;102770.13;5060874;28;1165;-74
2023/05/27 06:08:36;;;;;;;;;;;;;;;9.43;80.47;102771.78;5066953;28;1894;-74
2023/05/27 06:11:01;;;;;;;;;;;;;;;9.49;80.31;102766.31;5047207;28;1228;-75
2023/05/27 06:13:26;;;;;;;;;;;;;;;9.53;80.25;102767.03;5057465;28;1156;-74
2023/05/27 06:15:51;;;;;;;;;;;;;;;9.61;81.76;102761.50;5060457;28;1277;-74
2023/05/27 06:18:16;;;;;;;;;;;;;;;9.66;81.53;102762.13;5058649;28;1299;-74
2023/05/27 06:20:42;;;;;;;;;;;;;;;9.70;81.30;102759.31;5052146;28;1318;-74
2023/05/27 06:23:07;;;;;;;;;;;;;;;9.78;80.85;102751.16;5063682;28;1720;-74
2023/05/27 06:25:32;;;;;;;;;;;;;;;9.85;80.32;102753.38;5071252;28;1208;-74
2023/05/27 06:27:57;;;;;;;;;;;;;;;9.89;81.06;102754.09;5065517;28;1894;-74
2023/05/27 06:30:23;;;;;;;;;;;;;;;9.95;81.07;102764.16;5065530;28;1332;-74
2023/05/27 06:32:48;;;;;;;;;;;;;;;9.96;80.56;102749.44;5066092;28;1495;-74
2023/05/27 06:35:13;;;;;;;;;;;;;;;9.99;81.01;102755.34;5071817;28;1082;-74
2023/05/27 06:37:38;;;;;;;;;;;;;;;10.06;80.57;102759.31;5064062;28;1216;-74
2023/05/27 06:40:04;;;;;;;;;;;;;;;10.16;80.51;102751.09;5070829;28;1158;-74
2023/05/27 06:42:29;;;;;;;;;;;;;;;10.24;80.14;102754.16;5063700;28;1096;-74
2023/05/27 06:44:54;;;;;;;;;;;;;;;10.27;79.90;102749.69;5059879;28;1238;-73
2023/05/27 06:47:21;;;;;;;;;;;;;;;10.29;80.68;102752.19;5069549;28;1921;-73
2023/05/27 06:49:46;;;;;;;;;;;;;;;10.38;79.54;102751.75;5050715;28;1199;-74
2023/05/27 06:52:11;;;;;;;;;;;;;;;10.43;80.40;102744.53;5070223;28;1111;-74
2023/05/27 06:54:36;;;;;;;;;;;;;;;10.47;79.97;102740.88;5048448;28;1196;-74
2023/05/27 06:57:02;;;;;;;;;;;;;;;10.53;80.38;102744.94;5070657;28;1076;-74
2023/05/27 06:59:27;;;;;;;;;;;;;;;10.62;80.07;102732.34;5061632;28;1240;-74
2023/05/27 07:01:53;;;;;;;;;;;;;;;10.70;79.99;102731.94;5060930;28;1522;-73
2023/05/27 07:04:18;;;;;;;;;;;;;;;10.80;79.91;102727.09;5039715;28;1345;-73
2023/05/27 07:06:43;;;;;;;;;;;;;;;10.91;79.66;102735.19;5067097;28;1965;-73
2023/05/27 07:09:09;;;;;;;;;;;;;;;11.02;79.03;102724.22;5068341;28;1546;-73
2023/05/27 07:11:34;;;;;;;;;;;;;;;11.10;79.88;102720.28;5068483;28;1371;-74
2023/05/27 07:13:59;;;;;;;;;;;;;;;11.19;79.00;102718.97;5064837;28;1376;-73
2023/05/27 07:16:25;;;;;;;;;;;;;;;11.25;78.09;102717.81;5053207;28;2211;-73
2023/05/27 07:18:50;;;;;;;;;;;;;;;11.34;79.52;102706.88;5066754;28;1236;-73
2023/05/27 07:21:15;;;;;;;;;;;;;;;11.43;77.84;102706.41;5077126;28;989;-74
2023/05/27 07:23:40;;;;;;;;;;;;;;;11.46;78.22;102711.41;5061680;28;1257;-74
2023/05/27 07:26:05;;;;;;;;;;;;;;;11.53;78.43;102712.78;5047652;28;1358;-73
2023/05/27 07:28:32;;;;;;;;;;;;;;;11.68;77.35;102711.91;5062243;28;1965;-75
2023/05/27 07:30:58;;;;;;;;;;;;;;;11.76;78.44;102716.69;5045620;28;1671;-74
2023/05/27 07:33:23;;;;;;;;;;;;;;;11.84;77.48;102711.06;5048611;28;1510;-73
2023/05/27 07:35:49;;;;;;;;;;;;;;;11.89;77.16;102703.84;5076620;28;1299;-73
2023/05/27 07:38:14;;;;;;;;;;;;;;;11.97;76.90;102706.84;5050061;28;1534;-73
2023/05/27 07:40:40;;;;;;;;;;;;;;;12.07;76.99;102707.16;5051280;28;1299;-73
2023/05/27 07:43:05;;;;;;;;;;;;;;;12.18;77.02;102700.41;5066680;28;1168;-73
2023/05/27 07:45:30;;;;;;;;;;;;;;;12.31;76.98;102700.50;5059329;28;1438;-75
2023/05/27 07:47:56;;;;;;;;;;;;;;;12.40;75.90;102699.16;5061296;28;1879;-73
2023/05/27 07:50:21;;;;;;;;;;;;;;;12.49;75.84;102693.38;5066860;28;1470;-76
2023/05/27 07:52:46;;;;;;;;;;;;;;;12.49;74.61;102688.16;5037401;28;1463;-73
2023/05/27 07:55:12;;;;;;;;;;;;;;;12.59;75.67;102681.47;5063789;28;2030;-74
2023/05/27 07:57:37;;;;;;;;;;;;;;;12.71;75.68;102688.56;5065687;28;1640;-74
2023/05/27 08:00:05;;;;;;;;;;;;;;;12.82;74.46;102684.47;5065828;28;1381;-74
2023/05/27 08:02:30;;;;;;;;;;;;;;;12.83;73.97;102681.75;5062957;28;1342;-74
2023/05/27 08:04:55;;;;;;;;;;;;;;;12.85;73.78;102668.66;5061771;28;1292;-75
2023/05/27 08:07:21;;;;;;;;;;;;;;;12.92;73.27;102669.94;5063913;28;1973;-73
2023/05/27 08:09:46;;;;;;;;;;;;;;;12.95;73.59;102664.53;5069193;28;1180;-75
2023/05/27 08:12:11;;;;;;;;;;;;;;;13.04;73.80;102669.19;5061345;28;1377;-75
2023/05/27 08:14:38;;;;;;;;;;;;;;;13.13;73.00;102658.19;5054181;28;1438;-74
2023/05/27 08:17:03;;;;;;;;;;;;;;;13.23;73.38;102664.50;5061647;28;1141;-73
2023/05/27 08:19:29;;;;;;;;;;;;;;;13.38;73.58;102662.69;5047925;28;1665;-76
2023/05/27 08:21:55;;;;;;;;;;;;;;;13.54;72.76;102657.34;5059679;28;1248;-74
2023/05/27 08:24:21;;;;;;;;;;;;;;;13.58;71.96;102653.56;5050251;28;1364;-74
2023/05/27 08:26:47;;;;;;;;;;;;;;;13.71;72.60;102654.47;5064776;28;1894;-74
2023/05/27 08:29:12;;;;;;;;;;;;;;;13.80;72.15;102653.84;5062268;28;1507;-75
2023/05/27 08:31:38;;;;;;;;;;;;;;;13.91;71.73;102649.69;5056399;28;1174;-75
2023/05/27 08:34:03;;;;;;;;;;;;;;;14.02;71.33;102647.22;5058201;28;1419;-75
2023/05/27 08:36:28;;;;;;;;;;;;;;;14.10;71.61;102644.91;5062257;28;1193;-75
2023/05/27 08:38:53;;;;;;;;;;;;;;;14.19;71.41;102639.06;5047777;28;1279;-75
2023/05/27 08:41:19;;;;;;;;;;;;;;;14.33;71.23;102636.34;5046995;28;1263;-75
2023/05/27 08:43:44;;;;;;;;;;;;;;;14.40;70.48;102630.72;5062202;28;1593;-74
2023/05/27 08:46:10;;;;;;;;;;;;;;;14.44;69.31;102629.56;5069490;28;941;-76
2023/05/27 08:48:36;;;;;;;;;;;;;;;14.53;69.42;102619.34;5074517;28;1943;-73
2023/05/27 08:51:02;;;;;;;;;;;;;;;14.61;69.43;102624.03;5064805;28;1224;-73
2023/05/27 08:53:28;;;;;;;;;;;;;;;14.70;69.82;102612.94;5069331;28;1213;-73
2023/05/27 08:55:54;;;;;;;;;;;;;;;14.78;69.39;102621.06;5073936;28;1306;-74
2023/05/27 08:58:19;;;;;;;;;;;;;;;14.79;68.93;102606.22;5086612;28;1256;-74
2023/05/27 09:00:45;;;;;;;;;;;;;;;14.78;68.54;102605.38;5079536;28;1235;-75
2023/05/27 09:03:10;;;;;;;;;;;;;;;14.88;68.28;102600.34;5058030;28;1369;-75
2023/05/27 09:05:36;;;;;;;;;;;;;;;14.91;68.47;102600.16;5061475;28;1372;-75
2023/05/27 09:08:01;;;;;;;;;;;;;;;14.98;66.96;102605.75;5061324;28;1945;-75
2023/05/27 09:10:36;;;;;;;;;;;;;;;15.00;67.76;102603.84;5067479;28;1216;-75
2023/05/27 09:13:02;;;;;;;;;;;;;;;15.06;67.79;102598.19;5075432;28;1209;-75
2023/05/27 09:15:27;;;;;;;;;;;;;;;15.11;68.11;102593.47;5091356;28;1141;-75
2023/05/27 09:17:52;;;;;;;;;;;;;;;15.22;67.31;102598.75;5069487;28;1227;-76
2023/05/27 09:20:24;;;;;;;;;;;;;;;15.27;67.48;102601.88;5057402;28;1145;-75
2023/05/27 09:22:55;;;;;;;;;;;;;;;15.35;67.69;102604.72;5062527;28;1231;-75
2023/05/27 09:25:23;;;;;;;;;;;;;;;15.46;67.12;102595.28;5067632;28;1268;-75
2023/05/27 09:27:48;;;;;;;;;;;;;;;15.54;66.22;102587.69;5064469;28;1906;-76
2023/05/27 09:30:14;;;;;;;;;;;;;;;15.62;65.94;102585.34;5058267;28;1457;-75
2023/05/27 09:32:39;;;;;;;;;;;;;;;15.88;65.06;102586.00;5062791;28;1534;-75
2023/05/27 09:35:07;;;;;;;;;;;;;;;15.80;64.65;102583.97;5067084;28;1197;-77
2023/05/27 09:37:32;;;;;;;;;;;;;;;15.83;64.77;102583.75;5063417;28;1321;-76
2023/05/27 09:39:58;;;;;;;;;;;;;;;15.91;64.96;102580.56;5044217;28;1208;-74
2023/05/27 09:42:24;;;;;;;;;;;;;;;15.98;63.98;102575.69;5061078;28;1217;-74
2023/05/27 09:44:49;;;;;;;;;;;;;;;16.07;61.87;102575.81;5063385;28;1341;-75
2023/05/27 09:47:15;;;;;;;;;;;;;;;16.08;63.07;102571.41;5058470;28;1943;-75
2023/05/27 09:49:42;;;;;;;;;;;;;;;16.18;64.13;102572.38;5048136;28;1338;-75
2023/05/27 09:52:09;;;;;;;;;;;;;;;16.34;62.24;102572.81;5062061;28;1359;-73
2023/05/27 09:54:35;;;;;;;;;;;;;;;16.44;63.15;102563.28;5065098;28;1385;-73
2023/05/27 09:57:01;;;;;;;;;;;;;;;16.61;63.61;102568.97;5056206;28;1190;-73
2023/05/27 09:59:26;;;;;;;;;;;;;;;16.76;61.39;102567.81;5064470;28;1332;-76
2023/05/27 10:01:51;;;;;;;;;;;;;;;16.81;62.01;102555.16;5065527;28;1158;-75
2023/05/27 10:04:17;;;;;;;;;;;;;;;16.86;60.97;102563.50;5043446;28;1250;-75
2023/05/27 10:06:44;;;;;;;;;;;;;;;17.00;59.61;102559.75;5057511;28;1995;-75
2023/05/27 10:09:09;;;;;;;;;;;;;;;16.94;60.80;102555.84;5051699;28;1289;-76
2023/05/27 10:11:38;;;;;;;;;;;;;;;16.92;59.08;102551.69;5060007;28;1256;-74
2023/05/27 10:14:04;;;;;;;;;;;;;;;16.88;60.06;102555.50;5061008;28;1193;-74
2023/05/27 10:16:29;;;;;;;;;;;;;;;16.98;60.14;102541.53;5068753;28;1152;-76
2023/05/27 10:18:58;;;;;;;;;;;;;;;17.14;60.69;102543.69;5060931;28;1189;-74
2023/05/27 10:21:27;;;;;;;;;;;;;;;17.22;59.66;102538.69;5064480;28;1424;-74
2023/05/27 10:23:59;;;;;;;;;;;;;;;17.30;59.58;102551.16;5065711;28;1173;-74
2023/05/27 10:26:35;;;;;;;;;;;;;;;17.36;58.44;102550.63;5062958;28;1332;-74
2023/05/27 10:29:10;;;;;;;;;;;;;;;17.47;58.13;102542.69;5061797;28;1111;-74
2023/05/27 10:31:43;;;;;;;;;;;;;;;17.68;58.85;102547.13;5044520;28;1228;-75
2023/05/27 10:34:08;;;;;;;;;;;;;;;17.64;57.38;102543.91;5060718;28;1481;-73
2023/05/27 10:36:33;;;;;;;;;;;;;;;17.70;57.10;102537.31;5043361;28;1176;-74
2023/05/27 10:39:00;;;;;;;;;;;;;;;17.89;56.77;102537.47;5055640;28;1226;-74
2023/05/27 10:41:26;;;;;;;;;;;;;;;17.73;56.48;102526.59;5056707;28;1156;-74
2023/05/27 10:43:58;;;;;;;;;;;;;;;17.81;57.32;102529.41;5059957;28;1025;-74
2023/05/27 10:46:23;;;;;;;;;;;;;;;17.94;57.16;102526.53;5053759;28;1159;-74
2023/05/27 10:48:49;;;;;;;;;;;;;;;18.11;57.45;102530.34;5063390;28;1963;-74
2023/05/27 10:51:14;;;;;;;;;;;;;;;18.21;56.68;102525.97;5037170;28;1189;-74
2023/05/27 10:53:40;;;;;;;;;;;;;;;18.31;52.46;102522.41;5038930;28;1163;-74
2023/05/27 10:56:06;;;;;;;;;;;;;;;18.22;54.60;102517.09;5044820;28;1241;-75
2023/05/27 10:58:33;;;;;;;;;;;;;;;18.29;54.78;102507.72;5066232;28;1103;-74
2023/05/27 11:01:01;;;;;;;;;;;;;;;18.41;54.53;102511.94;5057765;28;1288;-74
2023/05/27 11:03:27;;;;;;;;;;;;;;;18.45;54.79;102505.41;5057925;28;1130;-75
2023/05/27 11:06:02;;;;;;;;;;;;;;;18.49;53.99;102505.97;5036280;28;1216;-75
2023/05/27 11:08:28;;;;;;;;;;;;;;;18.64;52.45;102495.88;5062119;28;1914;-72
2023/05/27 11:11:02;;;;;;;;;;;;;;;18.67;54.01;102498.25;5059862;28;1272;-76
2023/05/27 11:13:34;;;;;;;;;;;;;;;18.80;53.44;102491.78;5059409;28;1277;-74
2023/05/27 11:16:00;;;;;;;;;;;;;;;18.94;49.32;102482.66;5061683;28;1209;-75
2023/05/27 11:18:33;;;;;;;;;;;;;;;18.98;52.00;102484.03;5061632;28;1494;-75
2023/05/27 11:20:58;;;;;;;;;;;;;;;19.06;52.89;102471.00;5050484;28;1192;-75
2023/05/27 11:23:32;;;;;;;;;;;;;;;19.19;51.50;102475.16;5062666;28;1237;-75
2023/05/27 11:25:58;;;;;;;;;;;;;;;19.18;50.54;102474.31;5059739;28;1149;-74
2023/05/27 11:28:23;;;;;;;;;;;;;;;19.24;50.81;102475.56;5065194;28;1922;-75
2023/05/27 11:30:49;;;;;;;;;;;;;;;19.29;50.64;102474.16;5044031;28;1278;-75
2023/05/27 11:33:14;;;;;;;;;;;;;;;19.36;50.31;102461.25;5060035;28;1255;-75
2023/05/27 11:35:39;;;;;;;;;;;;;;;19.42;50.19;102455.41;5039692;28;1315;-75
2023/05/27 11:38:05;;;;;;;;;;;;;;;19.51;50.97;102451.94;5064434;28;1187;-75
2023/05/27 11:40:38;;;;;;;;;;;;;;;19.61;51.21;102450.13;5062533;28;1181;-76
2023/05/27 11:43:03;;;;;;;;;;;;;;;19.69;50.69;102441.50;5059991;28;1181;-75
2023/05/27 11:45:30;;;;;;;;;;;;;;;19.70;49.19;102432.63;5043966;28;1354;-75
2023/05/27 11:47:55;;;;;;;;;;;;;;;19.78;49.17;102434.53;5056204;28;1902;-75
2023/05/27 11:50:21;;;;;;;;;;;;;;;19.85;49.81;102436.44;5061705;28;1244;-76
2023/05/27 11:52:52;;;;;;;;;;;;;;;19.88;47.57;102435.31;5050718;28;1373;-75
2023/05/27 11:55:18;;;;;;;;;;;;;;;19.84;48.49;102428.66;5061323;28;1438;-74
2023/05/27 11:57:43;;;;;;;;;;;;;;;19.80;48.24;102416.78;5057199;28;1447;-75
2023/05/27 12:00:08;;;;;;;;;;;;;;;19.95;49.08;102414.47;5065619;28;1365;-75
2023/05/27 12:02:33;;;;;;;;;;;;;;;20.07;45.62;102419.41;5064976;28;1650;-76
2023/05/27 12:04:59;;;;;;;;;;;;;;;20.12;45.67;102411.84;5058214;28;1666;-76
2023/05/27 12:07:24;;;;;;;;;;;;;;;20.24;46.76;102412.47;5064901;28;1988;-75
2023/05/27 12:09:49;;;;;;;;;;;;;;;20.39;46.01;102415.41;5055601;28;1104;-75
2023/05/27 12:12:14;;;;;;;;;;;;;;;20.40;46.72;102414.44;5053327;28;1319;-75
2023/05/27 12:14:40;;;;;;;;;;;;;;;20.45;46.49;102401.63;5058040;28;1661;-75
2023/05/27 12:17:05;;;;;;;;;;;;;;;20.51;43.49;102395.78;5042965;28;1546;-76
2023/05/27 12:19:34;;;;;;;;;;;;;;;20.52;44.50;102404.53;5068313;28;1317;-75
2023/05/27 12:21:59;;;;;;;;;;;;;;;20.43;42.70;102387.78;5065198;28;1177;-75
2023/05/27 12:24:24;;;;;;;;;;;;;;;20.49;45.53;102397.75;5060641;28;1690;-77
2023/05/27 12:26:49;;;;;;;;;;;;;;;20.45;43.85;102385.81;5063894;28;1897;-76
2023/05/27 12:29:14;;;;;;;;;;;;;;;20.47;45.00;102388.31;5059817;28;1101;-76
2023/05/27 12:31:41;;;;;;;;;;;;;;;20.39;44.27;102387.25;5062091;28;1244;-76
2023/05/27 12:34:06;;;;;;;;;;;;;;;20.29;44.49;102385.69;5065668;28;1347;-75
2023/05/27 12:36:32;;;;;;;;;;;;;;;20.27;44.22;102387.66;5040016;28;1360;-76
2023/05/27 12:38:57;;;;;;;;;;;;;;;20.25;44.25;102384.34;5075679;28;1586;-75
2023/05/27 12:41:23;;;;;;;;;;;;;;;20.30;44.61;102376.78;5065621;28;1432;-76
2023/05/27 12:43:48;;;;;;;;;;;;;;;20.29;43.95;102369.88;5066726;28;1345;-76
2023/05/27 12:46:13;;;;;;;;;;;;;;;20.26;44.64;102371.00;5063740;28;1334;-76